Time;durP1;ratioP1;P1;durP2;ratioP2;P2;SDS_P1;SDS_P2;PMS_P1;PMS_P2;Temp;Humidity;BMP_temperature;BMP_pressure;BME280_temperature;BME280_humidity;BME280_pressure;Samples;Min_cycle;Max_cycle;Signal;HPM_P1;HPM_P2
2023/11/24 00:01:00;;;;;;;0.90;0.53;;;6.90;99.90;;;;;;5034513;28;20456;-82
2023/11/24 00:03:26;;;;;;;0.30;0.30;;;6.90;99.90;;;;;;5034754;28;20446;-81
2023/11/24 00:05:53;;;;;;;0.40;0.40;;;6.80;99.90;;;;;;5034717;28;20829;-82
2023/11/24 00:08:20;;;;;;;0.30;0.30;;;6.90;99.90;;;;;;5034416;28;20446;-82
2023/11/24 00:10:48;;;;;;;0.37;0.37;;;6.80;99.90;;;;;;5034372;28;20443;-81
2023/11/24 00:13:16;;;;;;;0.40;0.30;;;6.80;99.90;;;;;;5034442;28;20439;-82
2023/11/24 00:15:45;;;;;;;0.30;0.30;;;6.70;99.90;;;;;;5034529;28;20459;-81
2023/11/24 00:18:12;;;;;;;0.40;0.40;;;6.60;99.90;;;;;;5034172;28;20479;-82
2023/11/24 00:20:38;;;;;;;0.40;0.40;;;6.60;99.90;;;;;;5034322;28;20482;-82
2023/11/24 00:23:05;;;;;;;0.30;0.30;;;6.60;99.90;;;;;;5034353;28;20975;-82
2023/11/24 00:25:32;;;;;;;0.30;0.30;;;6.60;99.90;;;;;;5034456;28;20467;-82
2023/11/24 00:28:00;;;;;;;0.30;0.30;;;6.60;99.90;;;;;;5034512;28;20458;-82
2023/11/24 00:30:27;;;;;;;0.50;0.40;;;6.60;99.90;;;;;;5034388;28;20879;-83
2023/11/24 00:32:54;;;;;;;0.30;0.30;;;6.60;99.90;;;;;;5034388;28;20439;-83
2023/11/24 00:35:21;;;;;;;0.30;0.27;;;6.60;99.90;;;;;;5034696;28;20466;-83
2023/11/24 00:37:49;;;;;;;0.30;0.30;;;6.60;99.90;;;;;;5034688;28;21023;-84
2023/11/24 00:40:18;;;;;;;0.47;0.30;;;6.50;99.90;;;;;;5033970;28;21002;-83
2023/11/24 00:42:44;;;;;;;0.40;0.40;;;6.40;99.90;;;;;;5034459;28;20450;-83
2023/11/24 00:45:13;;;;;;;0.50;0.43;;;6.50;99.90;;;;;;5034479;28;20935;-83
2023/11/24 00:47:41;;;;;;;0.40;0.30;;;6.40;99.90;;;;;;5034317;28;20442;-83
2023/11/24 00:50:09;;;;;;;0.50;0.50;;;6.30;99.90;;;;;;5034970;28;20812;-83
2023/11/24 00:52:37;;;;;;;0.40;0.30;;;6.30;99.90;;;;;;5033923;28;20450;-83
2023/11/24 00:55:05;;;;;;;0.40;0.40;;;6.30;99.90;;;;;;5034653;28;20455;-83
2023/11/24 00:57:32;;;;;;;0.30;0.30;;;6.30;99.90;;;;;;5035015;28;20538;-83
2023/11/24 00:59:59;;;;;;;0.47;0.40;;;6.30;99.90;;;;;;5034675;28;21010;-83
2023/11/24 01:02:27;;;;;;;0.40;0.37;;;6.30;99.90;;;;;;5036418;28;20439;-82
2023/11/24 01:04:54;;;;;;;0.30;0.30;;;6.20;99.90;;;;;;5036123;28;20450;-83
2023/11/24 01:07:21;;;;;;;0.50;0.40;;;6.20;99.90;;;;;;5038060;28;20466;-84
2023/11/24 01:09:49;;;;;;;0.30;0.30;;;6.20;99.90;;;;;;5039950;28;20442;-83
2023/11/24 01:12:16;;;;;;;1.00;0.40;;;6.20;99.90;;;;;;5039177;28;20447;-83
2023/11/24 01:14:43;;;;;;;0.43;0.43;;;6.20;99.90;;;;;;5039238;28;20446;-83
2023/11/24 01:20:00;;;;;;;0.30;0.30;;;6.20;99.90;;;;;;5042259;22;20486;-79
2023/11/24 01:22:26;;;;;;;0.67;0.67;;;6.30;99.90;;;;;;5036567;28;20450;-80
2023/11/24 01:24:53;;;;;;;0.83;0.47;;;6.30;99.90;;;;;;5036703;28;20450;-80
2023/11/24 01:30:15;;;;;;;0.30;0.20;;;6.30;99.90;;;;;;5015553;28;20492;-80
2023/11/24 01:32:42;;;;;;;0.40;0.30;;;6.40;99.90;;;;;;5016637;28;20932;-80
2023/11/24 01:35:10;;;;;;;0.30;0.30;;;6.40;99.90;;;;;;5017378;28;20474;-80
2023/11/24 01:40:21;;;;;;;0.40;0.40;;;6.40;99.90;;;;;;5015436;28;20487;-81
2023/11/24 01:42:48;;;;;;;0.93;0.50;;;6.50;99.90;;;;;;5016389;28;20440;-81
2023/11/24 01:45:15;;;;;;;1.00;0.40;;;6.60;99.90;;;;;;5016262;28;20466;-81
2023/11/24 01:50:19;;;;;;;0.67;0.30;;;6.50;99.90;;;;;;5391799;23;20853;-81
2023/11/24 01:52:47;;;;;;;0.90;0.40;;;6.40;99.90;;;;;;5019165;28;20476;-80
2023/11/24 01:55:16;;;;;;;0.40;0.40;;;6.40;99.90;;;;;;5016888;28;20866;-80
2023/11/24 01:57:43;;;;;;;0.40;0.30;;;6.50;99.90;;;;;;5016359;28;20460;-81
2023/11/24 02:00:13;;;;;;;1.27;0.50;;;6.50;99.90;;;;;;5015658;28;20491;-81
2023/11/24 02:02:40;;;;;;;11.10;0.67;;;6.50;99.90;;;;;;5016149;28;20448;-81
2023/11/24 02:05:08;;;;;;;0.40;0.30;;;6.50;99.90;;;;;;5016508;28;20452;-81
2023/11/24 02:07:37;;;;;;;0.30;0.30;;;6.50;99.90;;;;;;5018191;28;20836;-81
2023/11/24 02:10:04;;;;;;;0.40;0.30;;;6.60;99.90;;;;;;5017310;28;20440;-80
2023/11/24 02:12:31;;;;;;;0.40;0.30;;;6.50;99.90;;;;;;5016971;28;20451;-80
2023/11/24 02:14:58;;;;;;;1.13;0.30;;;6.40;99.90;;;;;;5019460;28;20956;-80
2023/11/24 02:20:13;;;;;;;0.40;0.30;;;6.40;99.90;;;;;;4998780;28;20570;-79
2023/11/24 02:22:42;;;;;;;0.37;0.37;;;6.30;99.90;;;;;;5005822;28;20452;-78
2023/11/24 02:25:09;;;;;;;0.40;0.37;;;6.30;99.90;;;;;;5004989;28;20444;-78
2023/11/24 02:30:06;;;;;;;1.27;0.30;;;6.30;99.90;;;;;;5017396;28;21003;-78
2023/11/24 02:32:33;;;;;;;0.93;0.40;;;6.30;99.90;;;;;;5016150;28;20455;-78
2023/11/24 02:35:00;;;;;;;0.30;0.30;;;6.30;99.90;;;;;;5015314;28;20443;-77
2023/11/24 02:37:27;;;;;;;0.40;0.30;;;6.30;99.90;;;;;;5015267;28;20879;-77
2023/11/24 02:39:55;;;;;;;0.30;0.20;;;6.30;99.90;;;;;;5015089;28;20487;-77
2023/11/24 02:42:22;;;;;;;0.60;0.50;;;6.40;99.90;;;;;;5015050;28;20447;-77
2023/11/24 02:44:49;;;;;;;0.60;0.60;;;6.40;99.90;;;;;;5015049;28;20444;-78
2023/11/24 02:47:16;;;;;;;0.30;0.27;;;6.40;99.90;;;;;;5014936;28;20467;-77
2023/11/24 02:49:43;;;;;;;0.53;0.53;;;6.30;99.90;;;;;;5015133;28;20439;-78
2023/11/24 02:52:10;;;;;;;0.30;0.30;;;6.30;99.90;;;;;;5014877;28;20470;-78
2023/11/24 02:54:36;;;;;;;0.40;0.33;;;6.30;99.90;;;;;;5015019;28;20795;-78
2023/11/24 02:57:05;;;;;;;0.40;0.40;;;6.30;99.90;;;;;;5015097;28;20470;-78
2023/11/24 02:59:32;;;;;;;1.53;0.40;;;6.30;99.90;;;;;;5014926;28;20455;-78
2023/11/24 03:01:58;;;;;;;0.30;0.20;;;6.30;99.90;;;;;;5014785;28;20824;-78
2023/11/24 03:04:25;;;;;;;0.30;0.30;;;6.20;99.90;;;;;;5014516;28;20936;-78
2023/11/24 03:06:52;;;;;;;0.47;0.47;;;6.20;99.90;;;;;;5014512;28;20463;-78
2023/11/24 03:09:22;;;;;;;0.30;0.30;;;6.20;99.90;;;;;;5014806;28;20517;-78
2023/11/24 03:11:49;;;;;;;0.40;0.30;;;6.20;99.90;;;;;;5015286;28;20444;-78
2023/11/24 03:14:20;;;;;;;0.30;0.30;;;7.90;99.90;;;;;;5014589;28;20448;-78
2023/11/24 03:16:49;;;;;;;0.30;0.20;;;6.20;99.90;;;;;;5015003;28;20834;-79
2023/11/24 03:19:16;;;;;;;0.30;0.27;;;6.10;99.90;;;;;;5014843;28;20479;-79
2023/11/24 03:21:43;;;;;;;0.37;0.30;;;6.10;99.90;;;;;;5014515;28;20491;-79
2023/11/24 03:24:10;;;;;;;0.30;0.30;;;6.10;99.90;;;;;;5015424;28;20454;-79
2023/11/24 03:26:37;;;;;;;0.30;0.30;;;6.10;99.90;;;;;;5014445;28;20845;-79
2023/11/24 03:29:04;;;;;;;0.30;0.30;;;7.20;99.90;;;;;;5014086;28;20509;-79
2023/11/24 03:31:32;;;;;;;0.30;0.30;;;6.10;99.90;;;;;;5013981;28;20443;-79
2023/11/24 03:34:00;;;;;;;0.30;0.20;;;6.90;99.90;;;;;;5014907;28;20467;-78
2023/11/24 03:36:27;;;;;;;0.30;0.20;;;6.80;99.90;;;;;;5014428;28;20446;-78
2023/11/24 03:38:53;;;;;;;0.30;0.30;;;5.30;99.90;;;;;;5014716;28;20456;-79
2023/11/24 03:41:20;;;;;;;0.40;0.30;;;6.10;99.90;;;;;;5017738;28;20491;-80
2023/11/24 03:43:47;;;;;;;0.30;0.30;;;5.90;99.90;;;;;;5016611;28;20546;-79
2023/11/24 03:46:14;;;;;;;0.30;0.30;;;6.90;99.90;;;;;;5015875;28;20440;-79
2023/11/24 03:48:43;;;;;;;0.30;0.20;;;6.00;99.90;;;;;;5022284;28;20471;-79
2023/11/24 03:51:10;;;;;;;0.30;0.30;;;6.00;99.90;;;;;;5018962;28;20446;-79
2023/11/24 03:53:37;;;;;;;0.30;0.30;;;7.20;99.90;;;;;;5018862;28;20450;-79
2023/11/24 03:56:06;;;;;;;0.30;0.27;;;6.00;99.90;;;;;;5020936;28;20458;-79
2023/11/24 03:58:33;;;;;;;0.30;0.30;;;6.00;99.90;;;;;;5018649;28;20479;-80
2023/11/24 04:01:00;;;;;;;0.30;0.30;;;7.30;99.90;;;;;;5016416;28;20487;-80
2023/11/24 04:03:26;;;;;;;0.30;0.30;;;7.10;99.90;;;;;;5015502;28;20432;-80
2023/11/24 04:05:55;;;;;;;0.30;0.20;;;6.00;99.90;;;;;;5016015;28;20458;-80
2023/11/24 04:08:21;;;;;;;1.23;0.30;;;6.10;99.90;;;;;;5016257;28;20478;-80
2023/11/24 04:10:48;;;;;;;0.30;0.30;;;7.40;99.90;;;;;;5015388;28;20450;-80
2023/11/24 04:13:15;;;;;;;0.30;0.20;;;6.40;99.90;;;;;;5017533;28;20448;-80
2023/11/24 04:15:42;;;;;;;0.30;0.30;;;7.90;99.90;;;;;;5024290;28;20451;-79
2023/11/24 04:18:09;;;;;;;0.40;0.30;;;6.00;99.90;;;;;;5018603;28;20476;-80
2023/11/24 04:20:37;;;;;;;0.40;0.30;;;7.50;99.90;;;;;;5019423;28;20515;-80
2023/11/24 04:23:07;;;;;;;0.30;0.30;;;6.00;99.90;;;;;;5022217;28;20483;-80
2023/11/24 04:25:35;;;;;;;0.30;0.20;;;6.00;99.90;;;;;;5021144;28;20451;-80
2023/11/24 04:28:02;;;;;;;0.53;0.53;;;6.80;99.90;;;;;;5019155;28;20514;-80
2023/11/24 04:30:29;;;;;;;0.30;0.20;;;6.00;99.90;;;;;;5020884;28;20412;-80
2023/11/24 04:32:59;;;;;;;0.30;0.30;;;5.90;99.90;;;;;;5020325;28;20494;-80
2023/11/24 04:35:28;;;;;;;0.30;0.20;;;6.50;99.90;;;;;;5022836;28;20797;-80
2023/11/24 04:37:55;;;;;;;0.30;0.30;;;6.00;99.90;;;;;;5023119;28;20936;-80
2023/11/24 04:40:24;;;;;;;0.40;0.40;;;5.90;99.90;;;;;;5021117;28;20526;-78
2023/11/24 04:42:52;;;;;;;0.30;0.30;;;6.90;99.90;;;;;;5024630;28;20970;-79
2023/11/24 04:45:19;;;;;;;1.27;0.30;;;6.10;99.90;;;;;;5025582;28;20530;-80
2023/11/24 04:47:46;;;;;;;0.30;0.20;;;6.90;99.90;;;;;;5027647;28;21045;-80
2023/11/24 04:50:12;;;;;;;0.30;0.27;;;8.10;99.90;;;;;;5028921;28;20471;-80
2023/11/24 04:52:40;;;;;;;0.80;0.30;;;6.10;99.90;;;;;;5013180;28;20451;-80
2023/11/24 04:55:08;;;;;;;0.40;0.30;;;7.70;99.90;;;;;;5028732;28;20526;-80
2023/11/24 04:57:36;;;;;;;0.30;0.30;;;6.10;99.90;;;;;;5011285;28;20863;-80
2023/11/24 05:00:08;;;;;;;0.30;0.30;;;6.30;99.90;;;;;;5031287;28;20440;-81
2023/11/24 05:02:38;;;;;;;0.30;0.20;;;6.10;99.90;;;;;;5029901;28;20455;-80
2023/11/24 05:07:52;;;;;;;0.30;0.27;;;6.10;99.90;;;;;;5049157;22;20484;-80
2023/11/24 05:10:19;;;;;;;0.30;0.30;;;6.10;99.90;;;;;;5054703;28;20450;-81
2023/11/24 05:12:51;;;;;;;0.40;0.30;;;6.30;99.90;;;;;;5051942;28;20454;-81
2023/11/24 05:15:28;;;;;;;0.60;0.43;;;6.70;99.90;;;;;;5051223;28;20515;-80
2023/11/24 05:18:00;;;;;;;0.30;0.30;;;7.60;99.90;;;;;;5052737;28;20478;-81
2023/11/24 05:23:14;;;;;;;0.40;0.40;;;6.30;99.90;;;;;;5052210;28;20434;-81
2023/11/24 05:26:01;;;;;;;0.30;0.20;;;6.30;99.90;;;;;;5052094;28;20955;-80
2023/11/24 05:28:33;;;;;;;0.30;0.30;;;6.40;99.90;;;;;;5052825;28;20467;-81
2023/11/24 05:31:03;;;;;;;0.40;0.40;;;6.30;99.90;;;;;;5053011;28;20427;-81
2023/11/24 05:33:39;;;;;;;0.30;0.20;;;6.30;99.90;;;;;;5053368;28;20962;-81
2023/11/24 05:36:11;;;;;;;0.30;0.20;;;6.30;99.90;;;;;;5053380;28;20446;-81
2023/11/24 05:38:41;;;;;;;0.97;0.30;;;6.40;99.90;;;;;;5265550;23;20578;-80
2023/11/24 05:41:14;;;;;;;0.30;0.30;;;6.30;99.90;;;;;;5034444;28;20491;-81
2023/11/24 05:43:50;;;;;;;0.30;0.30;;;6.30;99.90;;;;;;5016238;28;20448;-80
2023/11/24 05:48:58;;;;;;;0.30;0.30;;;6.40;99.90;;;;;;5049585;28;20486;-81
2023/11/24 05:51:45;;;;;;;0.30;0.30;;;6.40;99.90;;;;;;4984867;28;20434;-80
2023/11/24 05:54:12;;;;;;;1.87;0.50;;;7.60;99.90;;;;;;5025263;28;20935;-80
2023/11/24 05:56:39;;;;;;;0.90;0.43;;;6.10;99.90;;;;;;5035901;28;20477;-80
2023/11/24 05:59:07;;;;;;;0.50;0.43;;;5.90;99.90;;;;;;5035609;28;21006;-80
2023/11/24 06:01:34;;;;;;;3.23;0.77;;;5.80;99.90;;;;;;5035716;28;20486;-79
2023/11/24 06:04:02;;;;;;;0.50;0.50;;;5.70;99.90;;;;;;5035784;28;20436;-79
2023/11/24 06:06:29;;;;;;;0.33;0.30;;;5.70;99.90;;;;;;5035749;28;20567;-79
2023/11/24 06:08:56;;;;;;;0.43;0.43;;;5.70;99.90;;;;;;5035354;28;20447;-79
2023/11/24 06:11:22;;;;;;;0.40;0.30;;;6.80;99.90;;;;;;5035552;28;20478;-79
2023/11/24 06:13:49;;;;;;;0.30;0.30;;;5.60;99.90;;;;;;5035487;28;20443;-79
2023/11/24 06:16:17;;;;;;;0.47;0.40;;;5.60;99.90;;;;;;5035494;28;20450;-79
2023/11/24 06:18:44;;;;;;;0.30;0.30;;;6.90;99.90;;;;;;5035964;28;20446;-79
2023/11/24 06:21:12;;;;;;;0.30;0.30;;;5.60;99.90;;;;;;5035581;28;20482;-79
2023/11/24 06:23:39;;;;;;;0.40;0.30;;;5.60;99.90;;;;;;5035819;28;20447;-79
2023/11/24 06:26:08;;;;;;;0.33;0.33;;;5.60;99.90;;;;;;5035397;28;20821;-79
2023/11/24 06:28:35;;;;;;;0.40;0.30;;;5.60;99.90;;;;;;5035030;28;21006;-79
2023/11/24 06:31:03;;;;;;;0.60;0.30;;;5.60;99.90;;;;;;5035397;28;20446;-79
2023/11/24 06:33:31;;;;;;;0.60;0.60;;;5.70;99.90;;;;;;5035537;28;20450;-79
2023/11/24 06:36:00;;;;;;;0.30;0.30;;;5.70;99.90;;;;;;5035071;28;20525;-79
2023/11/24 06:38:27;;;;;;;1.07;0.37;;;5.80;99.90;;;;;;5035051;28;20474;-79
2023/11/24 06:40:53;;;;;;;1.57;0.40;;;5.80;99.90;;;;;;5035180;28;20479;-79
2023/11/24 06:43:20;;;;;;;0.40;0.30;;;5.90;99.90;;;;;;5034660;28;20977;-79
2023/11/24 06:45:47;;;;;;;0.30;0.30;;;5.90;99.90;;;;;;5034920;28;20446;-79
2023/11/24 06:48:13;;;;;;;0.40;0.33;;;5.90;99.90;;;;;;5034497;28;20483;-79
2023/11/24 06:50:41;;;;;;;0.30;0.30;;;5.90;99.90;;;;;;5034777;28;20447;-79
2023/11/24 06:53:08;;;;;;;0.60;0.40;;;5.90;99.90;;;;;;5034830;28;20447;-79
2023/11/24 06:55:35;;;;;;;0.40;0.30;;;6.00;99.90;;;;;;5034864;28;20447;-79
2023/11/24 06:58:04;;;;;;;0.40;0.40;;;6.00;99.90;;;;;;5034692;28;20462;-79
2023/11/24 07:00:31;;;;;;;0.40;0.40;;;6.00;99.90;;;;;;5034743;28;20457;-79
2023/11/24 07:02:57;;;;;;;0.53;0.40;;;6.00;99.90;;;;;;5035112;28;20442;-79
2023/11/24 07:05:24;;;;;;;0.43;0.30;;;6.00;99.90;;;;;;5034711;28;20454;-79
2023/11/24 07:07:52;;;;;;;0.37;0.37;;;6.00;99.90;;;;;;5034697;28;20562;-79
2023/11/24 07:10:22;;;;;;;0.47;0.30;;;6.00;99.90;;;;;;5034744;28;20442;-79
2023/11/24 07:12:49;;;;;;;0.50;0.30;;;6.10;99.90;;;;;;5034374;28;20442;-79
2023/11/24 07:15:16;;;;;;;0.40;0.30;;;6.10;99.90;;;;;;5034395;28;20457;-79
2023/11/24 07:17:43;;;;;;;0.50;0.33;;;6.10;99.90;;;;;;5061593;22;20497;-86
2023/11/24 07:20:11;;;;;;;0.30;0.27;;;6.10;99.90;;;;;;5040570;28;20957;-86
2023/11/24 07:22:38;;;;;;;2.23;0.30;;;6.10;99.90;;;;;;5040549;28;20493;-86
2023/11/24 07:25:07;;;;;;;1.23;0.53;;;6.10;99.90;;;;;;5040345;28;20454;-86
2023/11/24 07:27:34;;;;;;;0.40;0.40;;;6.20;99.90;;;;;;5039138;28;20472;-86
2023/11/24 07:30:01;;;;;;;0.30;0.30;;;6.20;99.90;;;;;;5038760;28;20461;-86
2023/11/24 07:32:29;;;;;;;0.40;0.30;;;6.20;99.90;;;;;;5037733;28;20439;-87
2023/11/24 07:34:56;;;;;;;2.83;0.30;;;6.20;99.90;;;;;;5037235;28;20454;-87
2023/11/24 07:37:23;;;;;;;0.40;0.30;;;6.20;99.90;;;;;;5037324;28;20926;-86
2023/11/24 07:39:50;;;;;;;0.50;0.40;;;6.20;99.90;;;;;;5038022;28;20501;-86
2023/11/24 07:42:18;;;;;;;0.40;0.40;;;6.20;99.90;;;;;;5044458;28;20930;-86
2023/11/24 07:44:45;;;;;;;0.40;0.33;;;6.10;99.90;;;;;;5047714;28;20451;-86
2023/11/24 07:47:14;;;;;;;0.50;0.50;;;6.10;99.90;;;;;;5041769;28;20838;-86
2023/11/24 07:49:41;;;;;;;0.30;0.30;;;6.00;99.90;;;;;;5038260;28;20449;-86
2023/11/24 07:52:08;;;;;;;0.87;0.40;;;6.00;99.90;;;;;;5035891;28;20431;-86
2023/11/24 07:54:34;;;;;;;0.30;0.30;;;6.10;99.90;;;;;;5037166;28;20438;-86
2023/11/24 07:57:02;;;;;;;0.70;0.30;;;6.10;99.90;;;;;;5036437;28;20471;-86
2023/11/24 07:59:30;;;;;;;1.27;0.60;;;6.10;99.90;;;;;;5035744;28;20431;-87
2023/11/24 08:01:57;;;;;;;0.40;0.40;;;6.10;99.90;;;;;;5035633;28;20490;-86
2023/11/24 08:04:24;;;;;;;0.50;0.40;;;6.10;99.90;;;;;;5035266;28;20593;-86
2023/11/24 08:06:50;;;;;;;0.30;0.30;;;6.00;99.90;;;;;;5034607;28;20444;-87
2023/11/24 08:09:17;;;;;;;0.40;0.30;;;6.00;99.90;;;;;;5035116;28;20451;-87
2023/11/24 08:11:46;;;;;;;0.40;0.30;;;6.10;99.90;;;;;;5034778;28;20465;-86
2023/11/24 08:14:14;;;;;;;0.40;0.40;;;6.10;99.90;;;;;;5035559;28;20450;-86
2023/11/24 08:16:42;;;;;;;10.30;0.83;;;6.10;99.90;;;;;;5033874;28;20455;-86
2023/11/24 08:19:09;;;;;;;0.37;0.30;;;6.10;99.90;;;;;;5034735;28;20930;-86
2023/11/24 08:21:35;;;;;;;0.57;0.50;;;6.20;99.90;;;;;;5034930;28;20846;-86
2023/11/24 08:24:02;;;;;;;0.40;0.40;;;6.20;99.90;;;;;;5034802;28;20483;-86
2023/11/24 08:26:29;;;;;;;0.40;0.40;;;6.20;99.90;;;;;;5034575;28;20451;-86
2023/11/24 08:28:56;;;;;;;1.00;1.00;;;6.20;99.90;;;;;;5034375;28;20466;-86
2023/11/24 08:31:23;;;;;;;1.03;0.40;;;6.20;99.90;;;;;;5034689;28;20449;-86
2023/11/24 08:33:51;;;;;;;0.50;0.50;;;6.30;99.90;;;;;;5035311;28;20534;-86
2023/11/24 08:36:18;;;;;;;0.53;0.50;;;6.30;99.90;;;;;;5036909;28;20451;-86
2023/11/24 08:38:45;;;;;;;0.50;0.50;;;6.30;99.90;;;;;;5034912;28;20463;-86
2023/11/24 08:41:13;;;;;;;0.50;0.50;;;6.30;99.90;;;;;;5035015;28;20496;-86
2023/11/24 08:43:40;;;;;;;0.93;0.40;;;6.30;99.90;;;;;;5034744;28;20446;-86
2023/11/24 08:46:08;;;;;;;2.67;0.70;;;6.20;99.90;;;;;;5034564;28;20453;-87
2023/11/24 08:48:35;;;;;;;0.30;0.30;;;6.30;99.90;;;;;;5034761;28;20496;-86
2023/11/24 08:51:04;;;;;;;0.50;0.40;;;6.30;99.90;;;;;;5035118;28;20967;-86
2023/11/24 08:53:33;;;;;;;0.30;0.30;;;6.30;99.90;;;;;;5034993;28;20541;-86
2023/11/24 08:55:59;;;;;;;0.40;0.30;;;6.40;99.90;;;;;;5034507;28;20454;-86
2023/11/24 08:58:27;;;;;;;1.27;0.37;;;6.70;99.90;;;;;;5033513;28;20461;-86
2023/11/24 09:00:54;;;;;;;1.00;0.40;;;7.20;99.90;;;;;;5033500;28;20447;-86
2023/11/24 09:03:24;;;;;;;0.40;0.40;;;7.50;99.90;;;;;;5033612;28;20486;-86
2023/11/24 09:05:51;;;;;;;7.80;0.83;;;7.40;99.90;;;;;;5033547;28;20442;-86
2023/11/24 09:08:19;;;;;;;0.30;0.30;;;7.40;99.90;;;;;;5033200;28;20466;-86
2023/11/24 09:10:46;;;;;;;1.60;0.60;;;7.30;99.90;;;;;;5033535;28;20446;-86
2023/11/24 09:13:13;;;;;;;0.40;0.40;;;7.20;99.90;;;;;;5033396;28;20442;-86
2023/11/24 09:15:41;;;;;;;0.70;0.70;;;7.00;99.90;;;;;;5033710;28;20445;-86
2023/11/24 09:18:07;;;;;;;0.30;0.30;;;6.90;99.90;;;;;;5033097;28;20485;-85
2023/11/24 09:20:34;;;;;;;0.70;0.50;;;6.80;99.90;;;;;;5033551;28;20439;-86
2023/11/24 09:23:01;;;;;;;0.93;0.50;;;6.90;99.90;;;;;;5033647;28;20486;-86
2023/11/24 09:25:29;;;;;;;0.40;0.40;;;6.80;99.90;;;;;;5033272;28;20442;-86
2023/11/24 09:27:56;;;;;;;0.70;0.70;;;6.90;99.90;;;;;;5034332;28;20463;-86
2023/11/24 09:30:23;;;;;;;0.50;0.40;;;7.20;99.90;;;;;;5037802;28;20446;-86
2023/11/24 09:32:54;;;;;;;0.33;0.33;;;7.60;99.90;;;;;;5036486;28;20442;-86
2023/11/24 09:35:21;;;;;;;1.27;0.80;;;7.80;99.90;;;;;;5036641;28;20446;-86
2023/11/24 09:37:48;;;;;;;0.50;0.40;;;7.80;99.90;;;;;;5036374;28;20462;-86
2023/11/24 09:40:19;;;;;;;0.40;0.40;;;7.70;99.90;;;;;;5036514;28;20450;-86
2023/11/24 09:42:47;;;;;;;0.60;0.40;;;7.50;99.90;;;;;;5036222;28;20549;-86
2023/11/24 09:45:17;;;;;;;2.60;0.50;;;7.40;99.90;;;;;;5036317;28;20446;-86
2023/11/24 09:47:48;;;;;;;0.40;0.40;;;7.30;99.90;;;;;;5036352;28;20471;-86
2023/11/24 09:50:16;;;;;;;0.93;0.63;;;7.20;99.90;;;;;;5036288;28;20489;-85
2023/11/24 09:52:46;;;;;;;0.60;0.43;;;7.20;99.90;;;;;;5048798;28;20435;-83
2023/11/24 09:55:13;;;;;;;0.70;0.60;;;7.10;99.90;;;;;;5047572;28;20431;-85
2023/11/24 09:57:40;;;;;;;2.10;0.67;;;7.10;99.90;;;;;;5039708;28;20475;-85
2023/11/24 10:00:10;;;;;;;0.97;0.63;;;7.20;99.90;;;;;;5035934;28;20450;-85
2023/11/24 10:02:39;;;;;;;1.80;0.57;;;7.20;99.90;;;;;;5035907;28;20540;-86
2023/11/24 10:05:06;;;;;;;0.93;0.60;;;7.20;99.90;;;;;;5035870;28;20508;-86
2023/11/24 10:07:35;;;;;;;2.20;0.50;;;7.20;99.90;;;;;;5036084;28;20467;-85
2023/11/24 10:10:02;;;;;;;0.40;0.30;;;7.20;99.90;;;;;;5035894;28;20451;-85
2023/11/24 10:12:30;;;;;;;4.07;0.63;;;7.20;99.90;;;;;;5035602;28;20447;-86
2023/11/24 10:14:57;;;;;;;1.03;0.50;;;7.30;99.90;;;;;;5035595;28;20442;-86
2023/11/24 10:17:25;;;;;;;2.93;0.60;;;7.30;99.90;;;;;;5035333;28;20931;-85
2023/11/24 10:19:53;;;;;;;0.63;0.50;;;7.30;99.90;;;;;;5035677;28;20439;-85
2023/11/24 10:22:23;;;;;;;3.07;0.70;;;7.30;99.90;;;;;;5035829;28;20482;-86
2023/11/24 10:24:50;;;;;;;1.47;0.70;;;7.30;99.90;;;;;;5035724;28;20450;-85
2023/11/24 10:27:21;;;;;;;0.67;0.67;;;7.40;99.90;;;;;;5035426;28;20492;-85
2023/11/24 10:29:49;;;;;;;1.33;0.60;;;7.50;99.90;;;;;;5035701;28;20458;-86
2023/11/24 10:32:15;;;;;;;0.40;0.40;;;7.80;99.90;;;;;;5035359;28;20501;-86
2023/11/24 10:34:44;;;;;;;4.23;0.67;;;7.40;99.90;;;;;;5035543;28;20447;-85
2023/11/24 10:37:12;;;;;;;10.60;1.33;;;7.40;99.90;;;;;;5035603;28;20459;-86
2023/11/24 10:39:44;;;;;;;0.40;0.40;;;7.50;99.90;;;;;;5034535;28;20815;-86
2023/11/24 10:42:11;;;;;;;1.43;0.50;;;7.60;99.90;;;;;;5035580;28;20816;-86
2023/11/24 10:44:41;;;;;;;0.50;0.50;;;7.70;99.90;;;;;;5035248;28;20450;-86
2023/11/24 10:47:10;;;;;;;3.03;1.07;;;7.80;99.90;;;;;;5035199;28;20473;-85
2023/11/24 10:49:44;;;;;;;0.50;0.50;;;7.60;99.90;;;;;;5035374;28;20447;-85
2023/11/24 10:52:20;;;;;;;4.70;0.70;;;7.60;99.90;;;;;;5035520;28;20434;-85
2023/11/24 10:54:52;;;;;;;0.30;0.30;;;7.50;99.90;;;;;;5036295;28;20435;-85
2023/11/24 10:57:22;;;;;;;3.30;0.90;;;7.50;99.90;;;;;;5036907;28;20466;-84
2023/11/24 10:59:50;;;;;;;2.10;0.60;;;7.50;99.90;;;;;;5037747;28;20442;-85
2023/11/24 11:02:17;;;;;;;1.23;0.47;;;7.70;99.90;;;;;;5035763;28;20585;-85
2023/11/24 11:04:59;;;;;;;0.60;0.53;;;7.90;99.90;;;;;;5035242;28;20439;-82
2023/11/24 11:07:35;;;;;;;6.23;0.67;;;8.10;99.90;;;;;;5035331;28;20455;-82
2023/11/24 11:10:12;;;;;;;0.37;0.33;;;8.20;99.90;;;;;;5035815;28;20882;-82
2023/11/24 11:12:43;;;;;;;0.30;0.30;;;8.30;99.90;;;;;;5035339;28;20473;-82
2023/11/24 11:15:10;;;;;;;0.50;0.50;;;8.40;99.90;;;;;;5035160;28;20485;-82
2023/11/24 11:17:38;;;;;;;2.83;0.83;;;8.40;99.90;;;;;;5035180;28;21061;-82
2023/11/24 11:20:12;;;;;;;0.40;0.40;;;8.30;99.90;;;;;;5035357;28;20957;-82
2023/11/24 11:22:42;;;;;;;0.97;0.50;;;8.40;99.90;;;;;;5035105;28;20480;-82
2023/11/24 11:25:40;;;;;;;0.90;0.50;;;8.50;99.90;;;;;;5035000;28;20432;-82
2023/11/24 11:28:45;;;;;;;0.50;0.50;;;8.60;99.90;;;;;;5034621;28;20469;-82
2023/11/24 11:31:32;;;;;;;1.67;0.50;;;8.60;99.90;;;;;;5036200;28;20774;-82
2023/11/24 11:34:14;;;;;;;0.50;0.40;;;8.40;99.90;;;;;;5035070;28;20515;-82
2023/11/24 11:36:58;;;;;;;0.87;0.87;;;8.30;99.90;;;;;;5034433;28;20946;-85
2023/11/24 11:39:30;;;;;;;0.70;0.40;;;8.40;99.90;;;;;;5034921;28;20503;-82
2023/11/24 11:41:57;;;;;;;2.00;0.50;;;8.40;99.90;;;;;;5034380;28;20407;-85
2023/11/24 11:44:33;;;;;;;1.03;0.50;;;8.40;99.90;;;;;;5034161;28;20438;-83
2023/11/24 11:47:12;;;;;;;0.40;0.40;;;8.50;99.90;;;;;;5033907;28;20473;-84
2023/11/24 11:49:41;;;;;;;0.40;0.40;;;8.50;99.90;;;;;;5034292;28;20696;-84
2023/11/24 11:52:11;;;;;;;0.30;0.30;;;8.10;99.90;;;;;;5034011;28;20993;-84
2023/11/24 11:54:39;;;;;;;0.40;0.30;;;7.60;99.90;;;;;;5034573;28;20522;-84
2023/11/24 11:57:07;;;;;;;0.30;0.30;;;7.20;99.90;;;;;;5033773;28;21009;-85
2023/11/24 11:59:34;;;;;;;0.40;0.40;;;7.00;99.90;;;;;;5034637;28;20454;-85
2023/11/24 12:02:01;;;;;;;2.50;0.37;;;6.80;99.90;;;;;;5049074;28;20427;-83
2023/11/24 12:04:29;;;;;;;0.83;0.50;;;6.60;99.90;;;;;;5044705;28;20482;-85
2023/11/24 12:06:56;;;;;;;0.60;0.50;;;6.50;99.90;;;;;;5035463;28;20475;-86
2023/11/24 12:09:25;;;;;;;0.60;0.40;;;6.50;99.90;;;;;;5035079;28;20443;-86
2023/11/24 12:11:52;;;;;;;3.60;0.73;;;6.50;99.90;;;;;;5035003;28;20446;-85
2023/11/24 12:14:20;;;;;;;11.73;0.50;;;6.50;99.90;;;;;;5034650;28;20789;-86
2023/11/24 12:16:46;;;;;;;0.60;0.50;;;6.50;99.90;;;;;;5033529;28;20450;-86
2023/11/24 12:19:13;;;;;;;0.40;0.40;;;6.40;99.90;;;;;;5034036;28;20776;-86
2023/11/24 12:21:42;;;;;;;0.80;0.53;;;6.40;99.90;;;;;;5033681;28;20450;-86
2023/11/24 12:24:10;;;;;;;0.50;0.40;;;6.20;99.90;;;;;;5033788;28;20479;-85
2023/11/24 12:26:39;;;;;;;0.30;0.30;;;6.00;99.90;;;;;;5034383;28;20837;-86
2023/11/24 12:29:14;;;;;;;0.40;0.40;;;5.90;99.90;;;;;;5034251;28;20935;-86
2023/11/24 12:31:42;;;;;;;1.40;0.70;;;5.90;99.90;;;;;;5035478;28;20442;-86
2023/11/24 12:34:20;;;;;;;0.50;0.50;;;5.90;99.90;;;;;;5035484;28;20446;-86
2023/11/24 12:36:48;;;;;;;0.87;0.87;;;5.80;99.90;;;;;;5035691;28;20450;-86
2023/11/24 12:39:15;;;;;;;0.40;0.30;;;5.70;99.90;;;;;;5035643;28;20450;-86
2023/11/24 12:41:44;;;;;;;0.30;0.30;;;5.70;99.90;;;;;;5035006;28;20449;-86
2023/11/24 12:44:13;;;;;;;0.50;0.40;;;5.70;99.90;;;;;;5034882;28;20481;-86
2023/11/24 12:46:40;;;;;;;0.40;0.40;;;5.80;99.90;;;;;;5035104;28;20446;-85
2023/11/24 12:49:09;;;;;;;0.60;0.50;;;5.90;99.90;;;;;;5034897;28;20431;-87
2023/11/24 12:51:37;;;;;;;0.50;0.50;;;5.90;99.90;;;;;;5034607;28;20446;-87
2023/11/24 12:54:05;;;;;;;0.90;0.83;;;5.90;99.90;;;;;;5035613;28;20449;-86
2023/11/24 12:56:31;;;;;;;1.93;1.13;;;6.00;99.90;;;;;;5036022;28;20939;-86
2023/11/24 12:59:02;;;;;;;0.50;0.50;;;6.00;99.90;;;;;;5035327;28;20543;-86
2023/11/24 13:01:29;;;;;;;1.47;0.87;;;6.10;99.90;;;;;;5035581;28;20890;-85
2023/11/24 13:03:57;;;;;;;1.37;0.70;;;6.10;99.90;;;;;;5037549;28;20486;-85
2023/11/24 13:06:24;;;;;;;0.30;0.30;;;6.20;99.90;;;;;;5038939;28;20878;-85
2023/11/24 13:08:51;;;;;;;0.87;0.60;;;6.20;99.90;;;;;;5039076;28;20458;-86
2023/11/24 13:11:18;;;;;;;1.23;0.70;;;6.20;99.90;;;;;;5039327;28;20458;-85
2023/11/24 13:13:45;;;;;;;2.20;0.70;;;6.20;99.90;;;;;;5040016;28;20788;-86
2023/11/24 13:16:14;;;;;;;0.80;0.80;;;6.20;99.90;;;;;;5038731;28;21025;-86
2023/11/24 13:18:41;;;;;;;0.60;0.60;;;6.20;99.90;;;;;;5038645;28;20516;-86
2023/11/24 13:27:19;;;;;;;0.57;0.30;;;4.40;99.90;;;;;;4957302;29;21000;-80
2023/11/24 13:29:47;;;;;;;0.30;0.30;;;5.90;99.90;;;;;;5035697;28;20451;-80
2023/11/24 13:32:15;;;;;;;0.30;0.20;;;5.10;99.90;;;;;;5024069;28;20451;-80
2023/11/24 13:34:42;;;;;;;1.07;0.30;;;5.00;99.90;;;;;;5019095;28;20498;-80